sensor_id;sensor_type;location;lat;lon;timestamp;pressure;altitude;pressure_sealevel;temperature
73937;BMP180;59249;59.736;30.568;2023-08-30T00:00:42;100861.00;;;14.30
73937;BMP180;59249;59.736;30.568;2023-08-30T00:03:13;100856.00;;;14.30
73937;BMP180;59249;59.736;30.568;2023-08-30T00:05:42;100856.00;;;14.30
73937;BMP180;59249;59.736;30.568;2023-08-30T00:08:12;100862.00;;;14.30
73937;BMP180;59249;59.736;30.568;2023-08-30T00:10:48;100863.00;;;14.30
73937;BMP180;59249;59.736;30.568;2023-08-30T00:13:18;100862.00;;;14.30
73937;BMP180;59249;59.736;30.568;2023-08-30T00:15:47;100864.00;;;14.20
73937;BMP180;59249;59.736;30.568;2023-08-30T00:18:16;100865.00;;;14.20
73937;BMP180;59249;59.736;30.568;2023-08-30T00:20:45;100873.00;;;14.20
73937;BMP180;59249;59.736;30.568;2023-08-30T00:23:16;100865.00;;;14.10
73937;BMP180;59249;59.736;30.568;2023-08-30T00:25:44;100873.00;;;14.10
73937;BMP180;59249;59.736;30.568;2023-08-30T00:28:13;100878.00;;;14.00
73937;BMP180;59249;59.736;30.568;2023-08-30T00:30:42;100869.00;;;14.00
73937;BMP180;59249;59.736;30.568;2023-08-30T00:33:12;100865.00;;;14.00
73937;BMP180;59249;59.736;30.568;2023-08-30T00:35:41;100861.00;;;13.90
73937;BMP180;59249;59.736;30.568;2023-08-30T00:38:10;100861.00;;;13.90
73937;BMP180;59249;59.736;30.568;2023-08-30T00:40:40;100860.00;;;13.90
73937;BMP180;59249;59.736;30.568;2023-08-30T00:43:09;100855.00;;;13.80
73937;BMP180;59249;59.736;30.568;2023-08-30T00:45:39;100863.00;;;13.80
73937;BMP180;59249;59.736;30.568;2023-08-30T00:48:08;100865.00;;;13.80
73937;BMP180;59249;59.736;30.568;2023-08-30T00:50:37;100855.00;;;13.80
73937;BMP180;59249;59.736;30.568;2023-08-30T00:53:07;100856.00;;;13.80
73937;BMP180;59249;59.736;30.568;2023-08-30T00:55:37;100860.00;;;13.80
73937;BMP180;59249;59.736;30.568;2023-08-30T00:58:09;100863.00;;;13.70
73937;BMP180;59249;59.736;30.568;2023-08-30T01:00:39;100858.00;;;13.70
73937;BMP180;59249;59.736;30.568;2023-08-30T01:03:10;100860.00;;;13.70
73937;BMP180;59249;59.736;30.568;2023-08-30T01:05:39;100859.00;;;13.80
73937;BMP180;59249;59.736;30.568;2023-08-30T01:08:08;100859.00;;;13.80
73937;BMP180;59249;59.736;30.568;2023-08-30T01:10:49;100849.00;;;13.80
73937;BMP180;59249;59.736;30.568;2023-08-30T01:13:28;100862.00;;;13.90
73937;BMP180;59249;59.736;30.568;2023-08-30T01:16:04;100859.00;;;13.90
73937;BMP180;59249;59.736;30.568;2023-08-30T01:18:35;100858.00;;;13.90
73937;BMP180;59249;59.736;30.568;2023-08-30T01:21:14;100853.00;;;14.00
73937;BMP180;59249;59.736;30.568;2023-08-30T01:23:58;100847.00;;;13.90
73937;BMP180;59249;59.736;30.568;2023-08-30T01:26:38;100849.00;;;13.90
73937;BMP180;59249;59.736;30.568;2023-08-30T01:29:14;100848.00;;;13.80
73937;BMP180;59249;59.736;30.568;2023-08-30T01:31:47;100839.00;;;13.80
73937;BMP180;59249;59.736;30.568;2023-08-30T01:34:17;100837.00;;;13.80
73937;BMP180;59249;59.736;30.568;2023-08-30T01:36:47;100836.00;;;13.70
73937;BMP180;59249;59.736;30.568;2023-08-30T01:39:16;100831.00;;;13.70
73937;BMP180;59249;59.736;30.568;2023-08-30T01:41:46;100835.00;;;13.60
73937;BMP180;59249;59.736;30.568;2023-08-30T01:44:17;100822.00;;;13.60
73937;BMP180;59249;59.736;30.568;2023-08-30T01:46:47;100825.00;;;13.50
73937;BMP180;59249;59.736;30.568;2023-08-30T01:49:16;100826.00;;;13.50
73937;BMP180;59249;59.736;30.568;2023-08-30T01:51:46;100824.00;;;13.40
73937;BMP180;59249;59.736;30.568;2023-08-30T01:54:17;100821.00;;;13.40
73937;BMP180;59249;59.736;30.568;2023-08-30T01:56:47;100825.00;;;13.40
73937;BMP180;59249;59.736;30.568;2023-08-30T01:59:18;100821.00;;;13.40
73937;BMP180;59249;59.736;30.568;2023-08-30T02:01:47;100813.00;;;13.40
73937;BMP180;59249;59.736;30.568;2023-08-30T02:04:15;100818.00;;;13.40
73937;BMP180;59249;59.736;30.568;2023-08-30T02:06:49;100818.00;;;13.30
73937;BMP180;59249;59.736;30.568;2023-08-30T02:09:28;100806.00;;;13.30
73937;BMP180;59249;59.736;30.568;2023-08-30T02:12:04;100812.00;;;13.30
73937;BMP180;59249;59.736;30.568;2023-08-30T02:14:41;100817.00;;;13.30
73937;BMP180;59249;59.736;30.568;2023-08-30T02:17:14;100814.00;;;13.20
73937;BMP180;59249;59.736;30.568;2023-08-30T02:19:44;100823.00;;;13.20
73937;BMP180;59249;59.736;30.568;2023-08-30T02:22:18;100815.00;;;13.20
73937;BMP180;59249;59.736;30.568;2023-08-30T02:24:47;100810.00;;;13.20
73937;BMP180;59249;59.736;30.568;2023-08-30T02:27:15;100812.00;;;13.10
73937;BMP180;59249;59.736;30.568;2023-08-30T02:29:49;100813.00;;;13.10
73937;BMP180;59249;59.736;30.568;2023-08-30T02:32:18;100803.00;;;13.10
73937;BMP180;59249;59.736;30.568;2023-08-30T02:34:50;100811.00;;;13.10
73937;BMP180;59249;59.736;30.568;2023-08-30T02:37:21;100803.00;;;13.00
73937;BMP180;59249;59.736;30.568;2023-08-30T02:39:50;100804.00;;;13.00
73937;BMP180;59249;59.736;30.568;2023-08-30T02:42:19;100813.00;;;13.00
73937;BMP180;59249;59.736;30.568;2023-08-30T02:44:49;100811.00;;;13.00
73937;BMP180;59249;59.736;30.568;2023-08-30T02:47:18;100816.00;;;13.00
73937;BMP180;59249;59.736;30.568;2023-08-30T02:49:47;100816.00;;;13.00
73937;BMP180;59249;59.736;30.568;2023-08-30T02:52:17;100816.00;;;13.10
73937;BMP180;59249;59.736;30.568;2023-08-30T02:54:46;100819.00;;;13.00
73937;BMP180;59249;59.736;30.568;2023-08-30T02:57:15;100821.00;;;13.00
73937;BMP180;59249;59.736;30.568;2023-08-30T02:59:43;100830.00;;;13.00
73937;BMP180;59249;59.736;30.568;2023-08-30T03:02:13;100827.00;;;13.10
73937;BMP180;59249;59.736;30.568;2023-08-30T03:04:42;100826.00;;;13.10
73937;BMP180;59249;59.736;30.568;2023-08-30T03:07:11;100821.00;;;13.00
73937;BMP180;59249;59.736;30.568;2023-08-30T03:09:40;100815.00;;;13.00
73937;BMP180;59249;59.736;30.568;2023-08-30T03:12:09;100822.00;;;13.10
73937;BMP180;59249;59.736;30.568;2023-08-30T03:14:38;100813.00;;;13.10
73937;BMP180;59249;59.736;30.568;2023-08-30T03:17:07;100797.00;;;13.10
73937;BMP180;59249;59.736;30.568;2023-08-30T03:19:38;100810.00;;;13.10
73937;BMP180;59249;59.736;30.568;2023-08-30T03:22:08;100803.00;;;13.20
73937;BMP180;59249;59.736;30.568;2023-08-30T03:24:36;100805.00;;;13.30
73937;BMP180;59249;59.736;30.568;2023-08-30T03:27:05;100802.00;;;13.40
73937;BMP180;59249;59.736;30.568;2023-08-30T03:29:35;100807.00;;;13.50
73937;BMP180;59249;59.736;30.568;2023-08-30T03:32:05;100805.00;;;13.60
73937;BMP180;59249;59.736;30.568;2023-08-30T03:34:34;100803.00;;;13.70
73937;BMP180;59249;59.736;30.568;2023-08-30T03:37:04;100800.00;;;13.80
73937;BMP180;59249;59.736;30.568;2023-08-30T03:39:35;100802.00;;;13.90
73937;BMP180;59249;59.736;30.568;2023-08-30T03:42:04;100799.00;;;14.00
73937;BMP180;59249;59.736;30.568;2023-08-30T03:44:34;100804.00;;;14.10
73937;BMP180;59249;59.736;30.568;2023-08-30T03:47:06;100799.00;;;14.20
73937;BMP180;59249;59.736;30.568;2023-08-30T03:49:35;100802.00;;;14.30
73937;BMP180;59249;59.736;30.568;2023-08-30T03:52:08;100804.00;;;14.40
73937;BMP180;59249;59.736;30.568;2023-08-30T03:54:36;100798.00;;;14.40
73937;BMP180;59249;59.736;30.568;2023-08-30T03:57:05;100792.00;;;14.50
73937;BMP180;59249;59.736;30.568;2023-08-30T03:59:36;100777.00;;;14.50
73937;BMP180;59249;59.736;30.568;2023-08-30T04:02:08;100769.00;;;14.60
73937;BMP180;59249;59.736;30.568;2023-08-30T04:04:37;100764.00;;;14.60
73937;BMP180;59249;59.736;30.568;2023-08-30T04:07:10;100761.00;;;14.70
73937;BMP180;59249;59.736;30.568;2023-08-30T04:09:41;100759.00;;;14.80
73937;BMP180;59249;59.736;30.568;2023-08-30T04:12:11;100757.00;;;14.80
73937;BMP180;59249;59.736;30.568;2023-08-30T04:14:40;100753.00;;;15.00
73937;BMP180;59249;59.736;30.568;2023-08-30T04:17:12;100747.00;;;15.00
73937;BMP180;59249;59.736;30.568;2023-08-30T04:19:42;100740.00;;;15.10
73937;BMP180;59249;59.736;30.568;2023-08-30T04:22:13;100759.00;;;15.20
73937;BMP180;59249;59.736;30.568;2023-08-30T04:24:46;100762.00;;;15.10
73937;BMP180;59249;59.736;30.568;2023-08-30T04:27:15;100742.00;;;15.10
73937;BMP180;59249;59.736;30.568;2023-08-30T04:29:45;100725.00;;;15.20
73937;BMP180;59249;59.736;30.568;2023-08-30T04:32:16;100712.00;;;15.10
73937;BMP180;59249;59.736;30.568;2023-08-30T04:34:45;100720.00;;;15.20
73937;BMP180;59249;59.736;30.568;2023-08-30T04:37:15;100719.00;;;15.30
73937;BMP180;59249;59.736;30.568;2023-08-30T04:39:47;100719.00;;;15.30
73937;BMP180;59249;59.736;30.568;2023-08-30T04:42:16;100721.00;;;15.40
73937;BMP180;59249;59.736;30.568;2023-08-30T04:44:45;100720.00;;;15.50
73937;BMP180;59249;59.736;30.568;2023-08-30T04:47:14;100713.00;;;15.50
73937;BMP180;59249;59.736;30.568;2023-08-30T04:49:43;100717.00;;;15.60
73937;BMP180;59249;59.736;30.568;2023-08-30T04:52:12;100725.00;;;15.60
73937;BMP180;59249;59.736;30.568;2023-08-30T04:54:42;100730.00;;;15.80
73937;BMP180;59249;59.736;30.568;2023-08-30T04:57:13;100727.00;;;15.90
73937;BMP180;59249;59.736;30.568;2023-08-30T04:59:44;100731.00;;;16.10
73937;BMP180;59249;59.736;30.568;2023-08-30T05:02:13;100730.00;;;16.20
73937;BMP180;59249;59.736;30.568;2023-08-30T05:04:53;100728.00;;;16.30
73937;BMP180;59249;59.736;30.568;2023-08-30T05:07:22;100731.00;;;16.40
73937;BMP180;59249;59.736;30.568;2023-08-30T05:09:52;100736.00;;;16.50
73937;BMP180;59249;59.736;30.568;2023-08-30T05:12:22;100732.00;;;16.60
73937;BMP180;59249;59.736;30.568;2023-08-30T05:14:56;100733.00;;;16.70
73937;BMP180;59249;59.736;30.568;2023-08-30T05:17:32;100741.00;;;16.80
73937;BMP180;59249;59.736;30.568;2023-08-30T05:20:01;100742.00;;;16.80
73937;BMP180;59249;59.736;30.568;2023-08-30T05:22:32;100752.00;;;16.80
73937;BMP180;59249;59.736;30.568;2023-08-30T05:25:09;100749.00;;;16.80
73937;BMP180;59249;59.736;30.568;2023-08-30T05:27:38;100746.00;;;16.90
73937;BMP180;59249;59.736;30.568;2023-08-30T05:30:09;100750.00;;;16.90
73937;BMP180;59249;59.736;30.568;2023-08-30T05:32:39;100753.00;;;17.00
73937;BMP180;59249;59.736;30.568;2023-08-30T05:35:27;100753.00;;;17.10
73937;BMP180;59249;59.736;30.568;2023-08-30T05:38:15;100751.00;;;17.20
73937;BMP180;59249;59.736;30.568;2023-08-30T05:41:08;100733.00;;;17.30
73937;BMP180;59249;59.736;30.568;2023-08-30T05:43:37;100732.00;;;17.40
73937;BMP180;59249;59.736;30.568;2023-08-30T05:46:06;100738.00;;;17.40
73937;BMP180;59249;59.736;30.568;2023-08-30T05:48:42;100729.00;;;17.40
73937;BMP180;59249;59.736;30.568;2023-08-30T05:51:11;100745.00;;;17.60
73937;BMP180;59249;59.736;30.568;2023-08-30T05:53:44;100748.00;;;17.50
73937;BMP180;59249;59.736;30.568;2023-08-30T05:56:16;100759.00;;;17.70
73937;BMP180;59249;59.736;30.568;2023-08-30T05:58:47;100755.00;;;17.80
73937;BMP180;59249;59.736;30.568;2023-08-30T06:01:18;100746.00;;;17.80
73937;BMP180;59249;59.736;30.568;2023-08-30T06:03:47;100753.00;;;17.90
73937;BMP180;59249;59.736;30.568;2023-08-30T06:06:22;100749.00;;;18.00
73937;BMP180;59249;59.736;30.568;2023-08-30T06:08:52;100752.00;;;18.10
73937;BMP180;59249;59.736;30.568;2023-08-30T06:11:23;100759.00;;;18.20
73937;BMP180;59249;59.736;30.568;2023-08-30T06:13:52;100752.00;;;18.30
73937;BMP180;59249;59.736;30.568;2023-08-30T06:16:27;100761.00;;;18.40
73937;BMP180;59249;59.736;30.568;2023-08-30T06:18:56;100763.00;;;18.60
73937;BMP180;59249;59.736;30.568;2023-08-30T06:21:26;100748.00;;;18.60
73937;BMP180;59249;59.736;30.568;2023-08-30T06:23:55;100744.00;;;18.80
73937;BMP180;59249;59.736;30.568;2023-08-30T06:26:26;100752.00;;;18.90
73937;BMP180;59249;59.736;30.568;2023-08-30T06:28:55;100746.00;;;19.00
73937;BMP180;59249;59.736;30.568;2023-08-30T06:31:31;100752.00;;;19.10
73937;BMP180;59249;59.736;30.568;2023-08-30T06:34:00;100756.00;;;19.40
73937;BMP180;59249;59.736;30.568;2023-08-30T06:36:29;100765.00;;;19.50
73937;BMP180;59249;59.736;30.568;2023-08-30T06:38:58;100773.00;;;19.60
73937;BMP180;59249;59.736;30.568;2023-08-30T06:41:28;100774.00;;;19.80
73937;BMP180;59249;59.736;30.568;2023-08-30T06:43:57;100784.00;;;19.80
73937;BMP180;59249;59.736;30.568;2023-08-30T06:46:26;100785.00;;;19.90
73937;BMP180;59249;59.736;30.568;2023-08-30T06:48:55;100788.00;;;19.90
73937;BMP180;59249;59.736;30.568;2023-08-30T06:51:23;100793.00;;;20.10
73937;BMP180;59249;59.736;30.568;2023-08-30T06:53:56;100796.00;;;20.10
73937;BMP180;59249;59.736;30.568;2023-08-30T06:56:29;100801.00;;;20.20
73937;BMP180;59249;59.736;30.568;2023-08-30T06:58:58;100803.00;;;20.20
73937;BMP180;59249;59.736;30.568;2023-08-30T07:01:27;100807.00;;;20.20
73937;BMP180;59249;59.736;30.568;2023-08-30T07:03:56;100809.00;;;20.30
73937;BMP180;59249;59.736;30.568;2023-08-30T07:06:25;100804.00;;;20.30
73937;BMP180;59249;59.736;30.568;2023-08-30T07:08:57;100801.00;;;20.30
73937;BMP180;59249;59.736;30.568;2023-08-30T07:11:25;100804.00;;;20.30
73937;BMP180;59249;59.736;30.568;2023-08-30T07:14:02;100809.00;;;20.40
73937;BMP180;59249;59.736;30.568;2023-08-30T07:16:32;100824.00;;;20.20
73937;BMP180;59249;59.736;30.568;2023-08-30T07:19:01;100816.00;;;20.30
73937;BMP180;59249;59.736;30.568;2023-08-30T07:21:30;100829.00;;;20.30
73937;BMP180;59249;59.736;30.568;2023-08-30T07:24:00;100823.00;;;20.30
73937;BMP180;59249;59.736;30.568;2023-08-30T07:26:30;100829.00;;;20.30
73937;BMP180;59249;59.736;30.568;2023-08-30T07:29:09;100837.00;;;20.40
73937;BMP180;59249;59.736;30.568;2023-08-30T07:31:39;100844.00;;;20.30
73937;BMP180;59249;59.736;30.568;2023-08-30T07:34:09;100835.00;;;20.30
73937;BMP180;59249;59.736;30.568;2023-08-30T07:36:38;100834.00;;;20.30
73937;BMP180;59249;59.736;30.568;2023-08-30T07:39:15;100844.00;;;20.40
73937;BMP180;59249;59.736;30.568;2023-08-30T07:41:48;100844.00;;;20.40
73937;BMP180;59249;59.736;30.568;2023-08-30T07:44:18;100844.00;;;20.40
73937;BMP180;59249;59.736;30.568;2023-08-30T07:46:48;100843.00;;;20.40
73937;BMP180;59249;59.736;30.568;2023-08-30T07:49:19;100839.00;;;20.50
73937;BMP180;59249;59.736;30.568;2023-08-30T07:51:47;100831.00;;;20.50
73937;BMP180;59249;59.736;30.568;2023-08-30T07:54:18;100836.00;;;20.60
73937;BMP180;59249;59.736;30.568;2023-08-30T07:56:46;100824.00;;;20.70
73937;BMP180;59249;59.736;30.568;2023-08-30T07:59:15;100832.00;;;20.90
73937;BMP180;59249;59.736;30.568;2023-08-30T08:01:47;100833.00;;;21.00
73937;BMP180;59249;59.736;30.568;2023-08-30T08:04:16;100837.00;;;21.10
73937;BMP180;59249;59.736;30.568;2023-08-30T08:06:45;100827.00;;;21.20
73937;BMP180;59249;59.736;30.568;2023-08-30T08:09:24;100817.00;;;21.30
73937;BMP180;59249;59.736;30.568;2023-08-30T08:11:55;100817.00;;;21.30
73937;BMP180;59249;59.736;30.568;2023-08-30T08:14:47;100818.00;;;21.40
73937;BMP180;59249;59.736;30.568;2023-08-30T08:17:20;100822.00;;;21.30
73937;BMP180;59249;59.736;30.568;2023-08-30T08:19:50;100829.00;;;21.40
73937;BMP180;59249;59.736;30.568;2023-08-30T08:22:36;100832.00;;;21.40
73937;BMP180;59249;59.736;30.568;2023-08-30T08:25:07;100835.00;;;21.40
73937;BMP180;59249;59.736;30.568;2023-08-30T08:27:37;100848.00;;;21.30
73937;BMP180;59249;59.736;30.568;2023-08-30T08:30:08;100857.00;;;21.20
73937;BMP180;59249;59.736;30.568;2023-08-30T08:32:41;100870.00;;;21.10
73937;BMP180;59249;59.736;30.568;2023-08-30T08:35:30;100876.00;;;21.00
73937;BMP180;59249;59.736;30.568;2023-08-30T08:37:59;100876.00;;;21.00
73937;BMP180;59249;59.736;30.568;2023-08-30T08:40:36;100858.00;;;20.80
73937;BMP180;59249;59.736;30.568;2023-08-30T08:43:11;100846.00;;;20.70
73937;BMP180;59249;59.736;30.568;2023-08-30T08:45:41;100835.00;;;20.60
73937;BMP180;59249;59.736;30.568;2023-08-30T08:48:14;100824.00;;;20.60
73937;BMP180;59249;59.736;30.568;2023-08-30T08:50:48;100824.00;;;20.60
73937;BMP180;59249;59.736;30.568;2023-08-30T08:53:17;100823.00;;;20.60
73937;BMP180;59249;59.736;30.568;2023-08-30T08:55:47;100818.00;;;20.60
73937;BMP180;59249;59.736;30.568;2023-08-30T08:58:18;100803.00;;;20.50
73937;BMP180;59249;59.736;30.568;2023-08-30T09:00:48;100795.00;;;20.60
73937;BMP180;59249;59.736;30.568;2023-08-30T09:03:21;100794.00;;;20.70
73937;BMP180;59249;59.736;30.568;2023-08-30T09:05:52;100771.00;;;20.70
73937;BMP180;59249;59.736;30.568;2023-08-30T09:08:24;100766.00;;;20.50
73937;BMP180;59249;59.736;30.568;2023-08-30T09:10:55;100738.00;;;20.30
73937;BMP180;59249;59.736;30.568;2023-08-30T09:13:24;100730.00;;;20.20
73937;BMP180;59249;59.736;30.568;2023-08-30T09:16:10;100710.00;;;20.20
73937;BMP180;59249;59.736;30.568;2023-08-30T09:18:43;100686.00;;;20.00
73937;BMP180;59249;59.736;30.568;2023-08-30T09:21:31;100675.00;;;19.80
73937;BMP180;59249;59.736;30.568;2023-08-30T09:24:04;100672.00;;;19.80
73937;BMP180;59249;59.736;30.568;2023-08-30T09:26:38;100653.00;;;19.90
73937;BMP180;59249;59.736;30.568;2023-08-30T09:29:19;100626.00;;;20.00
73937;BMP180;59249;59.736;30.568;2023-08-30T09:31:56;100626.00;;;20.20
73937;BMP180;59249;59.736;30.568;2023-08-30T09:34:31;100621.00;;;20.30
73937;BMP180;59249;59.736;30.568;2023-08-30T09:37:00;100619.00;;;20.40
73937;BMP180;59249;59.736;30.568;2023-08-30T09:39:57;100613.00;;;20.40
73937;BMP180;59249;59.736;30.568;2023-08-30T09:42:31;100606.00;;;20.50
73937;BMP180;59249;59.736;30.568;2023-08-30T09:45:05;100599.00;;;20.50
73937;BMP180;59249;59.736;30.568;2023-08-30T09:47:49;100603.00;;;20.50
73937;BMP180;59249;59.736;30.568;2023-08-30T09:50:34;100589.00;;;20.50
73937;BMP180;59249;59.736;30.568;2023-08-30T09:53:07;100597.00;;;20.40
73937;BMP180;59249;59.736;30.568;2023-08-30T09:55:40;100588.00;;;20.40
73937;BMP180;59249;59.736;30.568;2023-08-30T09:58:13;100597.00;;;20.60
73937;BMP180;59249;59.736;30.568;2023-08-30T10:00:47;100598.00;;;20.70
73937;BMP180;59249;59.736;30.568;2023-08-30T10:03:19;100588.00;;;20.80
73937;BMP180;59249;59.736;30.568;2023-08-30T10:05:59;100580.00;;;20.70
73937;BMP180;59249;59.736;30.568;2023-08-30T10:08:38;100591.00;;;20.90
73937;BMP180;59249;59.736;30.568;2023-08-30T10:11:09;100588.00;;;20.90
73937;BMP180;59249;59.736;30.568;2023-08-30T10:13:42;100599.00;;;20.80
73937;BMP180;59249;59.736;30.568;2023-08-30T10:16:19;100622.00;;;20.70
73937;BMP180;59249;59.736;30.568;2023-08-30T10:18:54;100655.00;;;20.80
73937;BMP180;59249;59.736;30.568;2023-08-30T10:21:48;100649.00;;;20.90
73937;BMP180;59249;59.736;30.568;2023-08-30T10:24:40;100665.00;;;21.10
73937;BMP180;59249;59.736;30.568;2023-08-30T10:27:33;100660.00;;;21.20
73937;BMP180;59249;59.736;30.568;2023-08-30T10:30:07;100655.00;;;21.30
73937;BMP180;59249;59.736;30.568;2023-08-30T10:32:39;100650.00;;;21.30
73937;BMP180;59249;59.736;30.568;2023-08-30T10:35:13;100656.00;;;21.40
73937;BMP180;59249;59.736;30.568;2023-08-30T10:37:55;100667.00;;;21.50
73937;BMP180;59249;59.736;30.568;2023-08-30T10:40:25;100669.00;;;21.50
73937;BMP180;59249;59.736;30.568;2023-08-30T10:43:04;100670.00;;;21.40
73937;BMP180;59249;59.736;30.568;2023-08-30T10:45:34;100666.00;;;21.50
73937;BMP180;59249;59.736;30.568;2023-08-30T10:48:04;100654.00;;;21.40
73937;BMP180;59249;59.736;30.568;2023-08-30T10:50:47;100647.00;;;21.30
73937;BMP180;59249;59.736;30.568;2023-08-30T10:53:29;100631.00;;;21.30
73937;BMP180;59249;59.736;30.568;2023-08-30T10:56:07;100595.00;;;21.40
73937;BMP180;59249;59.736;30.568;2023-08-30T10:58:43;100556.00;;;21.30
73937;BMP180;59249;59.736;30.568;2023-08-30T11:01:20;100505.00;;;21.20
73937;BMP180;59249;59.736;30.568;2023-08-30T11:03:49;100424.00;;;21.10
73937;BMP180;59249;59.736;30.568;2023-08-30T11:06:43;100308.00;;;20.80
73937;BMP180;59249;59.736;30.568;2023-08-30T11:09:16;100303.00;;;20.60
73937;BMP180;59249;59.736;30.568;2023-08-30T11:11:50;100372.00;;;20.60
73937;BMP180;59249;59.736;30.568;2023-08-30T11:14:22;100422.00;;;20.60
73937;BMP180;59249;59.736;30.568;2023-08-30T11:16:55;100439.00;;;20.80
73937;BMP180;59249;59.736;30.568;2023-08-30T11:19:28;100465.00;;;20.90
73937;BMP180;59249;59.736;30.568;2023-08-30T11:21:58;100470.00;;;21.20
73937;BMP180;59249;59.736;30.568;2023-08-30T11:24:30;100487.00;;;21.30
73937;BMP180;59249;59.736;30.568;2023-08-30T11:27:03;100502.00;;;21.50
73937;BMP180;59249;59.736;30.568;2023-08-30T11:29:31;100523.00;;;21.70
73937;BMP180;59249;59.736;30.568;2023-08-30T11:32:03;100531.00;;;21.90
73937;BMP180;59249;59.736;30.568;2023-08-30T11:34:32;100534.00;;;22.20
73937;BMP180;59249;59.736;30.568;2023-08-30T11:37:01;100504.00;;;22.40
73937;BMP180;59249;59.736;30.568;2023-08-30T11:39:32;100474.00;;;22.50
73937;BMP180;59249;59.736;30.568;2023-08-30T11:42:03;100441.00;;;22.60
73937;BMP180;59249;59.736;30.568;2023-08-30T11:44:45;100385.00;;;22.70
73937;BMP180;59249;59.736;30.568;2023-08-30T11:47:18;100353.00;;;22.30
73937;BMP180;59249;59.736;30.568;2023-08-30T11:49:48;100377.00;;;22.40
73937;BMP180;59249;59.736;30.568;2023-08-30T11:52:19;100404.00;;;22.40
73937;BMP180;59249;59.736;30.568;2023-08-30T11:55:00;100419.00;;;22.50
73937;BMP180;59249;59.736;30.568;2023-08-30T11:57:33;100413.00;;;22.30
73937;BMP180;59249;59.736;30.568;2023-08-30T12:00:15;100404.00;;;22.20
73937;BMP180;59249;59.736;30.568;2023-08-30T12:03:01;100407.00;;;22.20
73937;BMP180;59249;59.736;30.568;2023-08-30T12:05:33;100410.00;;;22.30
73937;BMP180;59249;59.736;30.568;2023-08-30T12:08:19;100412.00;;;22.40
73937;BMP180;59249;59.736;30.568;2023-08-30T12:10:51;100420.00;;;22.30
73937;BMP180;59249;59.736;30.568;2023-08-30T12:13:22;100420.00;;;22.40
73937;BMP180;59249;59.736;30.568;2023-08-30T12:16:01;100430.00;;;22.50
73937;BMP180;59249;59.736;30.568;2023-08-30T12:18:37;100432.00;;;22.40
73937;BMP180;59249;59.736;30.568;2023-08-30T12:21:09;100427.00;;;22.50
73937;BMP180;59249;59.736;30.568;2023-08-30T12:23:59;100409.00;;;22.30
73937;BMP180;59249;59.736;30.568;2023-08-30T12:26:33;100395.00;;;22.30
73937;BMP180;59249;59.736;30.568;2023-08-30T12:29:02;100398.00;;;22.40
73937;BMP180;59249;59.736;30.568;2023-08-30T12:31:31;100401.00;;;22.50
73937;BMP180;59249;59.736;30.568;2023-08-30T12:34:00;100406.00;;;22.60
73937;BMP180;59249;59.736;30.568;2023-08-30T12:36:33;100422.00;;;22.60
73937;BMP180;59249;59.736;30.568;2023-08-30T12:39:02;100432.00;;;22.60
73937;BMP180;59249;59.736;30.568;2023-08-30T12:41:50;100455.00;;;22.70
73937;BMP180;59249;59.736;30.568;2023-08-30T12:44:21;100463.00;;;22.70
73937;BMP180;59249;59.736;30.568;2023-08-30T12:46:52;100472.00;;;22.70
73937;BMP180;59249;59.736;30.568;2023-08-30T12:49:21;100489.00;;;22.70
73937;BMP180;59249;59.736;30.568;2023-08-30T12:51:50;100508.00;;;22.40
73937;BMP180;59249;59.736;30.568;2023-08-30T12:54:21;100500.00;;;22.60
73937;BMP180;59249;59.736;30.568;2023-08-30T12:56:52;100500.00;;;22.70
73937;BMP180;59249;59.736;30.568;2023-08-30T12:59:23;100497.00;;;22.70
73937;BMP180;59249;59.736;30.568;2023-08-30T13:01:52;100502.00;;;22.40
73937;BMP180;59249;59.736;30.568;2023-08-30T13:04:23;100506.00;;;22.50
73937;BMP180;59249;59.736;30.568;2023-08-30T13:07:00;100494.00;;;22.30
73937;BMP180;59249;59.736;30.568;2023-08-30T13:09:31;100495.00;;;22.20
73937;BMP180;59249;59.736;30.568;2023-08-30T13:12:04;100469.00;;;22.20
73937;BMP180;59249;59.736;30.568;2023-08-30T13:14:33;100479.00;;;22.00
73937;BMP180;59249;59.736;30.568;2023-08-30T13:17:04;100472.00;;;22.20
73937;BMP180;59249;59.736;30.568;2023-08-30T13:19:42;100484.00;;;22.20
73937;BMP180;59249;59.736;30.568;2023-08-30T13:22:11;100493.00;;;22.30
73937;BMP180;59249;59.736;30.568;2023-08-30T13:24:40;100491.00;;;22.50
73937;BMP180;59249;59.736;30.568;2023-08-30T13:27:10;100492.00;;;22.60
73937;BMP180;59249;59.736;30.568;2023-08-30T13:29:40;100490.00;;;22.70
73937;BMP180;59249;59.736;30.568;2023-08-30T13:32:08;100484.00;;;22.80
73937;BMP180;59249;59.736;30.568;2023-08-30T13:34:38;100483.00;;;23.00
73937;BMP180;59249;59.736;30.568;2023-08-30T13:37:07;100478.00;;;23.10
73937;BMP180;59249;59.736;30.568;2023-08-30T13:39:36;100476.00;;;23.20
73937;BMP180;59249;59.736;30.568;2023-08-30T13:42:05;100475.00;;;23.40
73937;BMP180;59249;59.736;30.568;2023-08-30T13:44:36;100476.00;;;23.40
73937;BMP180;59249;59.736;30.568;2023-08-30T13:47:06;100476.00;;;23.50
73937;BMP180;59249;59.736;30.568;2023-08-30T13:49:35;100471.00;;;23.60
73937;BMP180;59249;59.736;30.568;2023-08-30T13:52:05;100477.00;;;23.70
73937;BMP180;59249;59.736;30.568;2023-08-30T13:54:34;100461.00;;;23.50
73937;BMP180;59249;59.736;30.568;2023-08-30T13:57:03;100460.00;;;23.40
73937;BMP180;59249;59.736;30.568;2023-08-30T13:59:32;100450.00;;;23.40
73937;BMP180;59249;59.736;30.568;2023-08-30T14:02:04;100439.00;;;23.40
73937;BMP180;59249;59.736;30.568;2023-08-30T14:04:33;100438.00;;;23.40
73937;BMP180;59249;59.736;30.568;2023-08-30T14:07:08;100431.00;;;23.40
73937;BMP180;59249;59.736;30.568;2023-08-30T14:09:38;100425.00;;;23.30
73937;BMP180;59249;59.736;30.568;2023-08-30T14:12:10;100420.00;;;23.20